sensor_id;sensor_type;location;lat;lon;timestamp;pressure;altitude;pressure_sealevel;temperature;humidity
11212;BME280;5663;50.864;12.096;2023-03-04T02:43:10;99805.59;;;3.39;67.69
11212;BME280;5663;50.864;12.096;2023-03-04T02:45:41;99807.28;;;3.40;67.49
11212;BME280;5663;50.864;12.096;2023-03-04T02:48:09;99802.09;;;3.42;68.01
11212;BME280;5663;50.864;12.096;2023-03-04T02:50:41;99799.53;;;3.43;68.22
11212;BME280;5663;50.864;12.096;2023-03-04T02:53:09;99798.66;;;3.44;67.47
11212;BME280;5663;50.864;12.096;2023-03-04T02:55:37;99792.63;;;3.45;67.90
11212;BME280;5663;50.864;12.096;2023-03-04T02:58:04;99795.19;;;3.45;68.09
11212;BME280;5663;50.864;12.096;2023-03-04T03:00:34;99795.19;;;3.45;68.07
11212;BME280;5663;50.864;12.096;2023-03-04T03:03:01;99788.34;;;3.46;68.12
11212;BME280;5663;50.864;12.096;2023-03-04T03:05:31;99788.31;;;3.48;67.93
11212;BME280;5663;50.864;12.096;2023-03-04T03:07:59;99765.41;;;3.32;67.79
11212;BME280;5663;50.864;12.096;2023-03-04T03:10:27;99792.59;;;3.49;67.70
11212;BME280;5663;50.864;12.096;2023-03-04T03:12:55;99778.84;;;3.50;67.50
11212;BME280;5663;50.864;12.096;2023-03-04T03:15:22;99782.31;;;3.49;67.82
11212;BME280;5663;50.864;12.096;2023-03-04T03:17:51;99784.84;;;3.50;68.24
11212;BME280;5663;50.864;12.096;2023-03-04T03:20:19;99782.31;;;3.49;68.15
11212;BME280;5663;50.864;12.096;2023-03-04T03:22:46;99780.53;;;3.51;67.43
11212;BME280;5663;50.864;12.096;2023-03-04T03:25:15;99780.53;;;3.51;67.61
11212;BME280;5663;50.864;12.096;2023-03-04T03:27:42;99751.66;;;3.36;67.72
11212;BME280;5663;50.864;12.096;2023-03-04T03:30:12;99772.00;;;3.50;67.94
11212;BME280;5663;50.864;12.096;2023-03-04T03:32:40;99772.78;;;3.54;67.78
11212;BME280;5663;50.864;12.096;2023-03-04T03:35:09;99769.41;;;3.52;67.84
11212;BME280;5663;50.864;12.096;2023-03-04T03:37:37;99743.06;;;3.37;67.56
11212;BME280;5663;50.864;12.096;2023-03-04T03:40:05;99768.50;;;3.54;67.63
11212;BME280;5663;50.864;12.096;2023-03-04T03:42:35;99767.63;;;3.55;67.87
11212;BME280;5663;50.864;12.096;2023-03-04T03:45:03;99754.75;;;3.57;67.46
11212;BME280;5663;50.864;12.096;2023-03-04T03:47:31;99725.13;;;3.33;68.13
11212;BME280;5663;50.864;12.096;2023-03-04T03:49:59;99756.47;;;3.55;68.01
11212;BME280;5663;50.864;12.096;2023-03-04T03:52:28;99752.22;;;3.55;68.08
11212;BME280;5663;50.864;12.096;2023-03-04T03:54:55;99747.03;;;3.57;67.52
11212;BME280;5663;50.864;12.096;2023-03-04T03:57:23;99729.28;;;3.41;67.64
11212;BME280;5663;50.864;12.096;2023-03-04T03:59:50;99749.59;;;3.57;67.54
11212;BME280;5663;50.864;12.096;2023-03-04T04:02:18;99744.47;;;3.57;67.87
11212;BME280;5663;50.864;12.096;2023-03-04T04:04:46;99746.19;;;3.55;68.03
11212;BME280;5663;50.864;12.096;2023-03-04T04:07:13;99756.44;;;3.58;67.63
11212;BME280;5663;50.864;12.096;2023-03-04T04:09:43;99745.34;;;3.54;67.69
11212;BME280;5663;50.864;12.096;2023-03-04T04:12:13;99757.28;;;3.58;67.60
11212;BME280;5663;50.864;12.096;2023-03-04T04:14:42;99755.56;;;3.59;67.82
11212;BME280;5663;50.864;12.096;2023-03-04T04:17:09;99760.72;;;3.57;67.81
11212;BME280;5663;50.864;12.096;2023-03-04T04:19:38;99755.59;;;3.57;67.69
11212;BME280;5663;50.864;12.096;2023-03-04T04:22:07;99723.41;;;3.33;67.44
11212;BME280;5663;50.864;12.096;2023-03-04T04:24:34;99758.19;;;3.56;67.54
11212;BME280;5663;50.864;12.096;2023-03-04T04:27:03;99720.03;;;3.30;67.83
11212;BME280;5663;50.864;12.096;2023-03-04T04:29:31;99765.88;;;3.57;68.04
11212;BME280;5663;50.864;12.096;2023-03-04T04:31:59;99773.56;;;3.59;67.54
11212;BME280;5663;50.864;12.096;2023-03-04T04:34:27;99739.53;;;3.43;68.00
11212;BME280;5663;50.864;12.096;2023-03-04T04:36:55;99763.28;;;3.59;67.54
11212;BME280;5663;50.864;12.096;2023-03-04T04:39:22;99767.59;;;3.57;67.94
11212;BME280;5663;50.864;12.096;2023-03-04T04:41:50;99769.28;;;3.59;67.77
11212;BME280;5663;50.864;12.096;2023-03-04T04:44:19;99782.09;;;3.61;67.90
11212;BME280;5663;50.864;12.096;2023-03-04T04:46:47;99782.09;;;3.61;68.15
11212;BME280;5663;50.864;12.096;2023-03-04T04:49:14;99778.69;;;3.59;68.03
11212;BME280;5663;50.864;12.096;2023-03-04T04:51:42;99768.50;;;3.56;67.70
11212;BME280;5663;50.864;12.096;2023-03-04T04:54:11;99761.78;;;3.45;67.85
11212;BME280;5663;50.864;12.096;2023-03-04T04:56:40;99778.69;;;3.60;68.28
11212;BME280;5663;50.864;12.096;2023-03-04T04:59:07;99782.97;;;3.61;68.34
11212;BME280;5663;50.864;12.096;2023-03-04T05:01:36;99784.66;;;3.62;68.08
11212;BME280;5663;50.864;12.096;2023-03-04T05:04:04;99780.34;;;3.63;67.65
11212;BME280;5663;50.864;12.096;2023-03-04T05:06:34;99773.56;;;3.60;68.17
11212;BME280;5663;50.864;12.096;2023-03-04T05:09:02;99785.50;;;3.63;67.76
11212;BME280;5663;50.864;12.096;2023-03-04T05:11:30;99779.50;;;3.62;67.98
11212;BME280;5663;50.864;12.096;2023-03-04T05:13:58;99778.66;;;3.62;67.78
11212;BME280;5663;50.864;12.096;2023-03-04T05:16:26;99788.94;;;3.62;67.95
11212;BME280;5663;50.864;12.096;2023-03-04T05:18:56;99782.09;;;3.61;67.96
11212;BME280;5663;50.864;12.096;2023-03-04T05:21:24;99783.00;;;3.60;68.02
11212;BME280;5663;50.864;12.096;2023-03-04T05:23:52;99783.84;;;3.59;68.02
11212;BME280;5663;50.864;12.096;2023-03-04T05:26:19;99785.56;;;3.60;68.53
11212;BME280;5663;50.864;12.096;2023-03-04T05:28:47;99783.00;;;3.60;67.96
11212;BME280;5663;50.864;12.096;2023-03-04T05:31:15;99778.66;;;3.62;67.93
11212;BME280;5663;50.864;12.096;2023-03-04T05:33:42;99756.56;;;3.52;68.45
11212;BME280;5663;50.864;12.096;2023-03-04T05:36:11;99737.88;;;3.40;67.93
11212;BME280;5663;50.864;12.096;2023-03-04T05:38:39;99768.31;;;3.65;68.18
11212;BME280;5663;50.864;12.096;2023-03-04T05:41:06;99778.63;;;3.65;68.45
11212;BME280;5663;50.864;12.096;2023-03-04T05:43:35;99768.38;;;3.62;68.45
11212;BME280;5663;50.864;12.096;2023-03-04T05:46:12;99773.44;;;3.68;67.92
11212;BME280;5663;50.864;12.096;2023-03-04T05:48:40;99775.97;;;3.69;68.55
11212;BME280;5663;50.864;12.096;2023-03-04T05:51:08;99766.56;;;3.67;68.41
11212;BME280;5663;50.864;12.096;2023-03-04T05:53:38;99761.38;;;3.70;68.08
11212;BME280;5663;50.864;12.096;2023-03-04T05:56:08;99765.69;;;3.69;67.95
11212;BME280;5663;50.864;12.096;2023-03-04T05:58:36;99772.47;;;3.74;67.77
11212;BME280;5663;50.864;12.096;2023-03-04T06:01:05;99766.44;;;3.76;68.15
11212;BME280;5663;50.864;12.096;2023-03-04T06:03:33;99772.41;;;3.77;68.10
11212;BME280;5663;50.864;12.096;2023-03-04T06:06:01;99774.16;;;3.76;67.88
11212;BME280;5663;50.864;12.096;2023-03-04T06:08:29;99768.97;;;3.78;67.82
11212;BME280;5663;50.864;12.096;2023-03-04T06:10:58;99769.78;;;3.81;67.69
11212;BME280;5663;50.864;12.096;2023-03-04T06:13:26;99683.16;;;3.32;68.11
11212;BME280;5663;50.864;12.096;2023-03-04T06:15:54;99740.84;;;3.67;67.67
11212;BME280;5663;50.864;12.096;2023-03-04T06:18:24;99729.00;;;3.60;68.31
11212;BME280;5663;50.864;12.096;2023-03-04T06:20:55;99758.59;;;3.82;68.16
11212;BME280;5663;50.864;12.096;2023-03-04T06:23:23;99767.91;;;3.89;68.23
11212;BME280;5663;50.864;12.096;2023-03-04T06:25:51;99768.75;;;3.90;67.58
11212;BME280;5663;50.864;12.096;2023-03-04T06:28:21;99724.66;;;3.62;68.10
11212;BME280;5663;50.864;12.096;2023-03-04T06:30:50;99679.63;;;3.39;67.75
11212;BME280;5663;50.864;12.096;2023-03-04T06:33:18;99775.50;;;3.97;67.43
11212;BME280;5663;50.864;12.096;2023-03-04T06:35:46;99773.78;;;3.98;68.13
11212;BME280;5663;50.864;12.096;2023-03-04T06:38:13;99770.34;;;3.97;67.97
11212;BME280;5663;50.864;12.096;2023-03-04T06:40:41;99777.09;;;4.03;67.58
11212;BME280;5663;50.864;12.096;2023-03-04T06:43:10;99783.09;;;4.05;67.49
11212;BME280;5663;50.864;12.096;2023-03-04T06:45:39;99779.63;;;4.06;67.24
11212;BME280;5663;50.864;12.096;2023-03-04T06:48:07;99781.31;;;4.08;67.85
11212;BME280;5663;50.864;12.096;2023-03-04T06:50:34;99782.97;;;4.11;67.83
11212;BME280;5663;50.864;12.096;2023-03-04T06:53:02;99786.38;;;4.13;67.34
11212;BME280;5663;50.864;12.096;2023-03-04T06:55:29;99780.34;;;4.15;67.63
11212;BME280;5663;50.864;12.096;2023-03-04T06:57:58;99769.28;;;4.09;67.75
11212;BME280;5663;50.864;12.096;2023-03-04T07:00:26;99791.38;;;4.20;67.64
11212;BME280;5663;50.864;12.096;2023-03-04T07:02:57;99793.91;;;4.22;67.16
11212;BME280;5663;50.864;12.096;2023-03-04T07:05:24;99796.44;;;4.25;67.42
11212;BME280;5663;50.864;12.096;2023-03-04T07:07:52;99786.09;;;4.27;67.36
11212;BME280;5663;50.864;12.096;2023-03-04T07:10:19;99779.19;;;4.30;66.99
11212;BME280;5663;50.864;12.096;2023-03-04T07:12:47;99785.97;;;4.34;67.33
11212;BME280;5663;50.864;12.096;2023-03-04T07:15:15;99785.97;;;4.34;66.82
11212;BME280;5663;50.864;12.096;2023-03-04T07:17:42;99779.06;;;4.36;67.35
11212;BME280;5663;50.864;12.096;2023-03-04T07:20:12;99772.25;;;4.35;67.22
11212;BME280;5663;50.864;12.096;2023-03-04T07:22:39;99779.03;;;4.39;67.06
11212;BME280;5663;50.864;12.096;2023-03-04T07:25:08;99777.25;;;4.41;67.00
11212;BME280;5663;50.864;12.096;2023-03-04T07:27:36;99747.50;;;4.27;66.96
11212;BME280;5663;50.864;12.096;2023-03-04T07:30:08;99772.16;;;4.38;67.12
11212;BME280;5663;50.864;12.096;2023-03-04T07:32:36;99766.94;;;4.41;67.21
11212;BME280;5663;50.864;12.096;2023-03-04T07:35:04;99779.63;;;4.51;66.61
11212;BME280;5663;50.864;12.096;2023-03-04T07:37:33;99775.31;;;4.53;67.31
11212;BME280;5663;50.864;12.096;2023-03-04T07:40:01;99767.63;;;4.51;67.24
11212;BME280;5663;50.864;12.096;2023-03-04T07:42:29;99779.50;;;4.58;66.64
11212;BME280;5663;50.864;12.096;2023-03-04T07:44:57;99779.53;;;4.57;66.77
11212;BME280;5663;50.864;12.096;2023-03-04T07:47:25;99780.28;;;4.62;66.63
11212;BME280;5663;50.864;12.096;2023-03-04T07:49:53;99756.47;;;4.51;67.01
11212;BME280;5663;50.864;12.096;2023-03-04T07:52:21;99776.75;;;4.66;66.93
11212;BME280;5663;50.864;12.096;2023-03-04T07:54:50;99782.69;;;4.69;66.45
11212;BME280;5663;50.864;12.096;2023-03-04T07:57:18;99754.59;;;4.59;66.76
11212;BME280;5663;50.864;12.096;2023-03-04T07:59:46;99781.66;;;4.78;66.40
11212;BME280;5663;50.864;12.096;2023-03-04T08:02:13;99777.34;;;4.80;66.68
11212;BME280;5663;50.864;12.096;2023-03-04T08:04:42;99769.47;;;4.86;66.37
11212;BME280;5663;50.864;12.096;2023-03-04T08:07:09;99769.41;;;4.89;66.04
11212;BME280;5663;50.864;12.096;2023-03-04T08:09:37;99771.94;;;4.92;66.00
11212;BME280;5663;50.864;12.096;2023-03-04T08:12:07;99763.25;;;4.97;66.41
11212;BME280;5663;50.864;12.096;2023-03-04T08:14:34;99765.72;;;5.03;66.44
11212;BME280;5663;50.864;12.096;2023-03-04T08:17:02;99721.41;;;4.85;65.80
11212;BME280;5663;50.864;12.096;2023-03-04T08:19:30;99747.38;;;5.15;65.85
11212;BME280;5663;50.864;12.096;2023-03-04T08:21:57;99749.81;;;5.21;65.75
11212;BME280;5663;50.864;12.096;2023-03-04T08:24:25;99747.97;;;5.26;66.11
11212;BME280;5663;50.864;12.096;2023-03-04T08:26:55;99747.84;;;5.32;66.14
11212;BME280;5663;50.864;12.096;2023-03-04T08:29:25;99751.13;;;5.37;65.74
11212;BME280;5663;50.864;12.096;2023-03-04T08:31:57;99711.25;;;5.16;66.04
11212;BME280;5663;50.864;12.096;2023-03-04T08:34:26;99730.75;;;5.28;65.60
11212;BME280;5663;50.864;12.096;2023-03-04T08:36:54;99730.66;;;5.31;65.50
11212;BME280;5663;50.864;12.096;2023-03-04T08:39:22;99755.88;;;5.54;65.54
11212;BME280;5663;50.864;12.096;2023-03-04T08:41:50;99750.66;;;5.59;65.45
11212;BME280;5663;50.864;12.096;2023-03-04T08:44:18;99746.41;;;5.56;65.46
11212;BME280;5663;50.864;12.096;2023-03-04T08:46:47;99723.38;;;5.49;65.33
11212;BME280;5663;50.864;12.096;2023-03-04T08:49:15;99752.94;;;5.69;65.63
11212;BME280;5663;50.864;12.096;2023-03-04T08:51:42;99744.16;;;5.77;65.34
11212;BME280;5663;50.864;12.096;2023-03-04T08:54:11;99736.38;;;5.78;65.14
11212;BME280;5663;50.864;12.096;2023-03-04T08:56:39;99749.00;;;5.90;65.25
11212;BME280;5663;50.864;12.096;2023-03-04T08:59:07;99742.91;;;5.95;65.15
11212;BME280;5663;50.864;12.096;2023-03-04T09:01:36;99743.56;;;6.01;64.96
11212;BME280;5663;50.864;12.096;2023-03-04T09:04:05;99739.03;;;6.11;64.99
11212;BME280;5663;50.864;12.096;2023-03-04T09:06:35;99733.59;;;6.20;64.81
11212;BME280;5663;50.864;12.096;2023-03-04T09:09:03;99730.88;;;6.25;64.86
11212;BME280;5663;50.864;12.096;2023-03-04T09:11:32;99721.25;;;6.31;64.62
11212;BME280;5663;50.864;12.096;2023-03-04T09:14:00;99726.84;;;6.46;64.53
11212;BME280;5663;50.864;12.096;2023-03-04T09:16:27;99727.47;;;6.54;64.85
11212;BME280;5663;50.864;12.096;2023-03-04T09:18:55;99731.56;;;6.62;64.17
11212;BME280;5663;50.864;12.096;2023-03-04T09:21:24;99705.13;;;6.53;64.32
11212;BME280;5663;50.864;12.096;2023-03-04T09:23:52;99732.03;;;6.75;64.15
11212;BME280;5663;50.864;12.096;2023-03-04T09:26:22;99721.50;;;6.81;64.35
11212;BME280;5663;50.864;12.096;2023-03-04T09:28:51;99730.78;;;6.88;63.87
11212;BME280;5663;50.864;12.096;2023-03-04T09:31:20;99704.16;;;6.85;63.79
11212;BME280;5663;50.864;12.096;2023-03-04T09:33:48;99713.19;;;7.00;63.74
11212;BME280;5663;50.864;12.096;2023-03-04T09:36:17;99698.69;;;6.96;64.11
11212;BME280;5663;50.864;12.096;2023-03-04T09:38:46;99715.31;;;7.15;63.92
11212;BME280;5663;50.864;12.096;2023-03-04T09:41:17;99703.38;;;7.11;63.23
11212;BME280;5663;50.864;12.096;2023-03-04T16:16:02;99483.59;;;8.25;62.07
11212;BME280;5663;50.864;12.096;2023-03-04T16:28:15;99481.66;;;8.08;62.79
11212;BME280;5663;50.864;12.096;2023-03-04T16:33:51;99484.56;;;8.01;62.86
11212;BME280;5663;50.864;12.096;2023-03-04T16:48:40;99459.84;;;7.70;63.55
11212;BME280;5663;50.864;12.096;2023-03-04T16:51:12;99486.22;;;7.80;63.63
11212;BME280;5663;50.864;12.096;2023-03-04T16:53:43;99475.13;;;7.76;63.97
11212;BME280;5663;50.864;12.096;2023-03-04T16:56:13;99488.09;;;7.76;64.06
11212;BME280;5663;50.864;12.096;2023-03-04T16:58:41;99486.41;;;7.75;63.90
11212;BME280;5663;50.864;12.096;2023-03-04T17:01:14;99479.66;;;7.71;64.09
11212;BME280;5663;50.864;12.096;2023-03-04T17:03:42;99480.56;;;7.70;63.75
11212;BME280;5663;50.864;12.096;2023-03-04T17:06:14;99482.25;;;7.71;64.27
11212;BME280;5663;50.864;12.096;2023-03-04T17:08:42;99448.72;;;7.45;63.96
11212;BME280;5663;50.864;12.096;2023-03-04T17:11:12;99488.44;;;7.67;64.06
11212;BME280;5663;50.864;12.096;2023-03-04T17:13:42;99491.03;;;7.67;64.29
11212;BME280;5663;50.864;12.096;2023-03-04T17:16:10;99491.06;;;7.65;64.38
11212;BME280;5663;50.864;12.096;2023-03-04T17:18:40;99475.22;;;7.51;64.23
11212;BME280;5663;50.864;12.096;2023-03-04T17:21:12;99499.00;;;7.61;64.52
11212;BME280;5663;50.864;12.096;2023-03-04T17:23:40;99501.59;;;7.61;64.67
11212;BME280;5663;50.864;12.096;2023-03-04T17:26:08;99497.38;;;7.58;64.01
11212;BME280;5663;50.864;12.096;2023-03-04T17:28:36;99489.06;;;7.50;64.26
11212;BME280;5663;50.864;12.096;2023-03-04T17:31:07;99486.50;;;7.49;64.38
11212;BME280;5663;50.864;12.096;2023-03-04T17:33:36;99492.66;;;7.46;64.67
11212;BME280;5663;50.864;12.096;2023-03-04T17:36:04;99496.97;;;7.46;64.86
11212;BME280;5663;50.864;12.096;2023-03-04T17:38:33;99493.59;;;7.44;64.82
11212;BME280;5663;50.864;12.096;2023-03-04T17:41:02;99502.38;;;7.39;64.85
11212;BME280;5663;50.864;12.096;2023-03-04T17:43:29;99493.81;;;7.37;64.88
11212;BME280;5663;50.864;12.096;2023-03-04T17:46:02;99493.94;;;7.34;65.10
11212;BME280;5663;50.864;12.096;2023-03-04T17:48:30;99493.94;;;7.34;65.10
11212;BME280;5663;50.864;12.096;2023-03-04T17:50:58;99497.41;;;7.33;65.19
11212;BME280;5663;50.864;12.096;2023-03-04T17:53:25;99492.31;;;7.32;64.99
11212;BME280;5663;50.864;12.096;2023-03-04T17:55:56;99495.72;;;7.32;65.19
11212;BME280;5663;50.864;12.096;2023-03-04T17:58:25;99494.94;;;7.30;64.49
11212;BME280;5663;50.864;12.096;2023-03-04T18:00:59;99477.38;;;7.15;64.89
11212;BME280;5663;50.864;12.096;2023-03-04T18:03:27;99490.94;;;7.22;64.88
11212;BME280;5663;50.864;12.096;2023-03-04T18:05:56;99496.06;;;7.23;65.10
11212;BME280;5663;50.864;12.096;2023-03-04T18:08:23;99510.78;;;7.21;64.46
11212;BME280;5663;50.864;12.096;2023-03-04T18:10:51;99516.03;;;7.18;64.46
11212;BME280;5663;50.864;12.096;2023-03-04T18:13:22;99522.22;;;7.14;64.51
11212;BME280;5663;50.864;12.096;2023-03-04T18:15:50;99517.28;;;7.08;64.65
11212;BME280;5663;50.864;12.096;2023-03-04T18:18:17;99505.34;;;7.04;64.60
11212;BME280;5663;50.864;12.096;2023-03-04T18:20:44;99503.78;;;7.00;64.42
11212;BME280;5663;50.864;12.096;2023-03-04T18:23:12;99482.03;;;6.80;64.99
11212;BME280;5663;50.864;12.096;2023-03-04T18:25:40;99505.78;;;6.91;64.79
11212;BME280;5663;50.864;12.096;2023-03-04T18:28:07;99500.69;;;6.88;65.17
11212;BME280;5663;50.864;12.096;2023-03-04T18:30:36;99502.38;;;6.89;65.21
11212;BME280;5663;50.864;12.096;2023-03-04T18:33:04;99498.03;;;6.90;64.98
11212;BME280;5663;50.864;12.096;2023-03-04T18:35:32;99507.56;;;6.89;65.54
11212;BME280;5663;50.864;12.096;2023-03-04T18:38:01;99502.38;;;6.89;65.23
11212;BME280;5663;50.864;12.096;2023-03-04T18:40:29;99505.78;;;6.91;65.36
11212;BME280;5663;50.864;12.096;2023-03-04T18:42:56;99502.28;;;6.93;65.06
11212;BME280;5663;50.864;12.096;2023-03-04T18:45:25;99503.13;;;6.93;64.97
11212;BME280;5663;50.864;12.096;2023-03-04T19:43:27;99513.63;;;6.62;66.33
11212;BME280;5663;50.864;12.096;2023-03-04T20:07:51;99507.00;;;6.55;66.64
11212;BME280;5663;50.864;12.096;2023-03-04T20:10:19;99515.63;;;6.54;66.89
11212;BME280;5663;50.864;12.096;2023-03-04T20:12:46;99502.00;;;6.49;67.23
11212;BME280;5663;50.864;12.096;2023-03-04T20:15:14;99508.78;;;6.53;66.98
11212;BME280;5663;50.864;12.096;2023-03-04T20:17:41;99507.09;;;6.52;67.26
11212;BME280;5663;50.864;12.096;2023-03-04T20:20:10;99480.97;;;6.34;67.28
11212;BME280;5663;50.864;12.096;2023-03-04T20:22:40;99476.88;;;6.27;66.98
11212;BME280;5663;50.864;12.096;2023-03-04T20:25:09;99514.16;;;6.47;67.12
11212;BME280;5663;50.864;12.096;2023-03-04T20:27:38;99513.34;;;6.45;66.96
11212;BME280;5663;50.864;12.096;2023-03-04T20:30:07;99513.34;;;6.45;67.10
11212;BME280;5663;50.864;12.096;2023-03-04T20:32:35;99521.03;;;6.46;66.82
11212;BME280;5663;50.864;12.096;2023-03-04T20:35:04;99521.09;;;6.45;66.89
11212;BME280;5663;50.864;12.096;2023-03-04T20:37:32;99513.47;;;6.40;66.64
11212;BME280;5663;50.864;12.096;2023-03-04T20:40:01;99517.72;;;6.43;66.65
11212;BME280;5663;50.864;12.096;2023-03-04T20:42:30;99516.84;;;6.42;66.51
11212;BME280;5663;50.864;12.096;2023-03-04T20:44:58;99514.31;;;6.40;66.60
11212;BME280;5663;50.864;12.096;2023-03-04T20:47:26;99510.22;;;6.35;66.48
11212;BME280;5663;50.864;12.096;2023-03-04T20:49:54;99521.16;;;6.43;66.07
11212;BME280;5663;50.864;12.096;2023-03-04T20:52:22;99518.56;;;6.43;66.24
11212;BME280;5663;50.864;12.096;2023-03-04T20:54:52;99522.88;;;6.43;65.89
11212;BME280;5663;50.864;12.096;2023-03-04T20:57:19;99519.50;;;6.40;66.02
11212;BME280;5663;50.864;12.096;2023-03-04T20:59:49;99526.25;;;6.45;66.10
11212;BME280;5663;50.864;12.096;2023-03-04T21:02:16;99521.16;;;6.41;66.08
11212;BME280;5663;50.864;12.096;2023-03-04T21:04:45;99519.41;;;6.44;65.93
11212;BME280;5663;50.864;12.096;2023-03-04T21:07:13;99518.56;;;6.43;65.92
11212;BME280;5663;50.864;12.096;2023-03-04T21:09:41;99522.00;;;6.42;65.82
11212;BME280;5663;50.864;12.096;2023-03-04T21:12:09;99507.72;;;6.32;65.72
11212;BME280;5663;50.864;12.096;2023-03-04T21:14:38;99525.41;;;6.44;65.59
11212;BME280;5663;50.864;12.096;2023-03-04T21:17:08;99485.69;;;6.20;65.61
11212;BME280;5663;50.864;12.096;2023-03-04T21:19:38;99529.72;;;6.44;65.48
11212;BME280;5663;50.864;12.096;2023-03-04T21:22:12;99524.66;;;6.40;65.14
11212;BME280;5663;50.864;12.096;2023-03-04T21:24:42;99486.75;;;6.14;65.18
11212;BME280;5663;50.864;12.096;2023-03-04T21:27:10;99526.53;;;6.35;65.15
11212;BME280;5663;50.864;12.096;2023-03-04T21:29:38;99530.91;;;6.33;65.28
11212;BME280;5663;50.864;12.096;2023-03-04T21:32:11;99521.75;;;6.23;65.03
11212;BME280;5663;50.864;12.096;2023-03-04T21:34:41;99516.47;;;6.26;65.00
11212;BME280;5663;50.864;12.096;2023-03-04T21:37:11;99510.53;;;6.24;64.81
11212;BME280;5663;50.864;12.096;2023-03-04T21:39:39;99510.53;;;6.24;64.54
11212;BME280;5663;50.864;12.096;2023-03-04T21:42:06;99512.28;;;6.24;64.71
11212;BME280;5663;50.864;12.096;2023-03-04T21:44:34;99519.13;;;6.25;64.94
11212;BME280;5663;50.864;12.096;2023-03-04T21:47:02;99524.28;;;6.25;64.63
11212;BME280;5663;50.864;12.096;2023-03-04T21:49:31;99520.06;;;6.22;64.73
11212;BME280;5663;50.864;12.096;2023-03-04T21:51:59;99484.56;;;6.01;64.36
11212;BME280;5663;50.864;12.096;2023-03-04T21:54:28;99521.84;;;6.20;64.70
11212;BME280;5663;50.864;12.096;2023-03-04T21:56:57;99520.25;;;6.16;64.45
11212;BME280;5663;50.864;12.096;2023-03-04T21:59:24;99503.25;;;6.09;64.53
11212;BME280;5663;50.864;12.096;2023-03-04T22:01:52;99494.06;;;6.00;64.55
11212;BME280;5663;50.864;12.096;2023-03-04T22:04:20;99510.91;;;6.12;64.67
11212;BME280;5663;50.864;12.096;2023-03-04T22:06:49;99511.09;;;6.06;65.01
